Time;durP1;ratioP1;P1;durP2;ratioP2;P2;SDS_P1;SDS_P2;PMS_P1;PMS_P2;Temp;Humidity;BMP_temperature;BMP_pressure;BME280_temperature;BME280_humidity;BME280_pressure;Samples;Min_cycle;Max_cycle;Signal;HPM_P1;HPM_P2
2022/11/13 00:00:14;;;;;;;98.60;65.53;;;;;;;;;;5020455;28;20302;-44
2022/11/13 00:02:40;;;;;;;112.07;72.77;;;;;;;;;;5029927;28;20746;-44
2022/11/13 00:05:06;;;;;;;131.10;86.13;;;;;;;;;;5030141;28;20210;-44
2022/11/13 00:07:32;;;;;;;135.03;94.40;;;;;;;;;;5030656;28;20218;-43
2022/11/13 00:09:58;;;;;;;146.73;98.83;;;;;;;;;;5023333;28;20183;-43
2022/11/13 00:12:24;;;;;;;123.30;84.30;;;;;;;;;;5025305;28;20179;-44
2022/11/13 00:14:50;;;;;;;120.23;85.53;;;;;;;;;;5027283;28;20268;-44
2022/11/13 00:17:16;;;;;;;114.07;83.20;;;;;;;;;;5027501;28;20973;-44
2022/11/13 00:19:43;;;;;;;117.60;82.77;;;;;;;;;;5027825;28;21433;-44
2022/11/13 00:22:09;;;;;;;114.17;86.30;;;;;;;;;;5026608;28;20179;-44
2022/11/13 00:24:35;;;;;;;117.27;88.47;;;;;;;;;;5030228;28;20223;-44
2022/11/13 00:27:01;;;;;;;109.90;85.27;;;;;;;;;;5025765;28;20910;-44
2022/11/13 00:29:27;;;;;;;110.80;87.80;;;;;;;;;;5026848;28;20171;-44
2022/11/13 00:31:53;;;;;;;114.97;89.00;;;;;;;;;;5028985;28;20194;-45
2022/11/13 00:34:19;;;;;;;104.43;85.27;;;;;;;;;;5027407;28;20201;-44
2022/11/13 00:36:45;;;;;;;109.23;90.17;;;;;;;;;;5026727;28;21049;-45
2022/11/13 00:39:11;;;;;;;107.93;88.97;;;;;;;;;;5022984;28;20266;-45
2022/11/13 00:41:37;;;;;;;110.43;92.57;;;;;;;;;;5024268;28;20180;-44
2022/11/13 00:44:04;;;;;;;103.40;87.70;;;;;;;;;;5028038;28;20171;-44
2022/11/13 00:46:30;;;;;;;112.53;91.37;;;;;;;;;;5029043;28;20187;-44
2022/11/13 00:48:56;;;;;;;93.30;81.23;;;;;;;;;;5031320;28;20178;-44
2022/11/13 00:51:22;;;;;;;94.80;83.60;;;;;;;;;;5031903;28;20183;-44
2022/11/13 00:53:48;;;;;;;110.33;90.33;;;;;;;;;;5023147;28;20187;-45
2022/11/13 00:56:14;;;;;;;100.07;85.83;;;;;;;;;;5024479;28;20207;-44
2022/11/13 00:58:40;;;;;;;109.50;91.03;;;;;;;;;;5027547;28;20184;-44
2022/11/13 01:01:08;;;;;;;108.67;88.60;;;;;;;;;;5028449;28;20428;-42
2022/11/13 01:03:34;;;;;;;112.27;88.33;;;;;;;;;;5028566;28;20192;-43
2022/11/13 01:06:00;;;;;;;108.87;89.10;;;;;;;;;;5024693;28;22774;-43
2022/11/13 01:08:27;;;;;;;104.93;82.23;;;;;;;;;;5029656;28;20207;-45
2022/11/13 01:10:53;;;;;;;80.27;64.53;;;;;;;;;;5028296;28;21014;-43
2022/11/13 01:13:19;;;;;;;92.17;72.90;;;;;;;;;;5028173;28;20544;-43
2022/11/13 01:15:45;;;;;;;86.40;69.43;;;;;;;;;;5024570;28;20310;-43
2022/11/13 01:18:11;;;;;;;81.47;67.83;;;;;;;;;;5008524;28;20214;-43
2022/11/13 01:20:38;;;;;;;84.30;68.07;;;;;;;;;;5028260;28;20331;-43
2022/11/13 01:23:04;;;;;;;91.23;74.03;;;;;;;;;;5028003;28;20176;-43
2022/11/13 01:25:30;;;;;;;102.43;81.83;;;;;;;;;;5025920;28;22089;-43
2022/11/13 01:27:56;;;;;;;90.60;75.17;;;;;;;;;;5028891;28;20649;-43
2022/11/13 01:30:23;;;;;;;86.83;72.90;;;;;;;;;;5029802;28;20430;-43
2022/11/13 01:32:49;;;;;;;84.03;69.93;;;;;;;;;;5027403;28;20294;-44
2022/11/13 01:35:15;;;;;;;104.77;82.10;;;;;;;;;;5031175;28;20203;-43
2022/11/13 01:37:41;;;;;;;98.53;79.13;;;;;;;;;;5034164;28;20422;-43
2022/11/13 01:40:07;;;;;;;128.90;92.23;;;;;;;;;;5032987;28;20417;-43
2022/11/13 01:42:33;;;;;;;122.80;88.80;;;;;;;;;;5029744;28;20176;-43
2022/11/13 01:45:01;;;;;;;183.43;91.17;;;;;;;;;;5030724;28;20418;-43
2022/11/13 01:47:28;;;;;;;189.03;95.33;;;;;;;;;;5030086;28;20468;-43
2022/11/13 01:49:55;;;;;;;183.70;90.30;;;;;;;;;;5032751;28;20444;-43
2022/11/13 01:52:25;;;;;;;162.87;83.67;;;;;;;;;;5030494;28;20438;-43
2022/11/13 01:55:02;;;;;;;154.57;78.53;;;;;;;;;;5008611;28;20588;-42
2022/11/13 01:57:28;;;;;;;176.27;90.73;;;;;;;;;;5024978;28;20424;-43
2022/11/13 01:59:56;;;;;;;190.70;101.50;;;;;;;;;;5029953;28;20437;-43
2022/11/13 02:02:22;;;;;;;172.43;101.43;;;;;;;;;;5009296;28;20425;-43
2022/11/13 02:04:48;;;;;;;203.10;112.00;;;;;;;;;;5032369;28;20430;-43
2022/11/13 02:07:15;;;;;;;162.87;93.40;;;;;;;;;;5024068;28;20468;-42
2022/11/13 02:09:46;;;;;;;208.93;102.93;;;;;;;;;;5030405;28;20429;-43
2022/11/13 02:12:13;;;;;;;186.43;97.23;;;;;;;;;;5029336;28;21228;-43
2022/11/13 02:14:42;;;;;;;223.33;107.00;;;;;;;;;;5028667;28;20468;-43
2022/11/13 02:17:09;;;;;;;212.17;104.57;;;;;;;;;;5027961;28;20432;-43
2022/11/13 02:19:38;;;;;;;201.13;103.33;;;;;;;;;;5034197;28;20421;-42
2022/11/13 02:22:07;;;;;;;271.80;118.83;;;;;;;;;;5028432;28;21344;-43
2022/11/13 02:24:36;;;;;;;240.47;117.00;;;;;;;;;;5029566;28;21466;-43
2022/11/13 02:27:05;;;;;;;264.77;125.60;;;;;;;;;;5029940;28;20444;-42
2022/11/13 02:29:31;;;;;;;182.13;102.70;;;;;;;;;;5028823;28;20514;-43
2022/11/13 02:31:57;;;;;;;175.73;100.90;;;;;;;;;;5032696;28;20425;-43
2022/11/13 02:34:23;;;;;;;178.80;103.27;;;;;;;;;;5033894;28;20442;-42
2022/11/13 02:36:50;;;;;;;204.53;110.67;;;;;;;;;;5029300;28;20502;-42
2022/11/13 02:39:16;;;;;;;153.60;95.30;;;;;;;;;;5033632;28;20432;-43
2022/11/13 02:41:42;;;;;;;184.83;104.60;;;;;;;;;;5031810;28;20429;-42
2022/11/13 02:44:08;;;;;;;162.37;98.10;;;;;;;;;;5027552;28;20430;-42
2022/11/13 02:46:34;;;;;;;157.33;93.63;;;;;;;;;;5031118;28;20433;-41
2022/11/13 02:49:01;;;;;;;156.77;92.60;;;;;;;;;;5031318;28;20428;-41
2022/11/13 02:51:27;;;;;;;132.20;81.97;;;;;;;;;;5028340;28;21275;-43
2022/11/13 02:53:53;;;;;;;105.07;72.40;;;;;;;;;;5032491;28;20434;-43
2022/11/13 02:56:20;;;;;;;110.13;76.63;;;;;;;;;;5029373;28;20584;-43
2022/11/13 02:58:46;;;;;;;111.20;73.67;;;;;;;;;;5025183;28;20433;-43
2022/11/13 03:01:12;;;;;;;107.03;66.67;;;;;;;;;;5023895;28;21313;-43
2022/11/13 03:03:38;;;;;;;120.80;69.97;;;;;;;;;;5031487;28;20422;-42
2022/11/13 03:06:04;;;;;;;118.57;69.73;;;;;;;;;;5026323;28;21477;-43
2022/11/13 03:08:30;;;;;;;163.33;84.37;;;;;;;;;;5029005;28;20426;-43
2022/11/13 03:10:57;;;;;;;133.43;75.97;;;;;;;;;;5029976;28;20436;-43
2022/11/13 03:13:23;;;;;;;172.73;88.00;;;;;;;;;;5009314;28;20591;-42
2022/11/13 03:15:49;;;;;;;146.67;78.27;;;;;;;;;;5028957;28;20485;-43
2022/11/13 03:18:15;;;;;;;158.50;82.23;;;;;;;;;;5027210;28;20540;-43
2022/11/13 03:20:43;;;;;;;217.00;97.07;;;;;;;;;;5029116;28;20437;-43
2022/11/13 03:23:09;;;;;;;169.47;85.57;;;;;;;;;;5029461;28;21245;-43
2022/11/13 03:25:35;;;;;;;189.23;96.60;;;;;;;;;;5027007;28;20478;-43
2022/11/13 03:28:01;;;;;;;183.50;93.97;;;;;;;;;;5031436;28;20425;-43
2022/11/13 03:30:27;;;;;;;245.83;115.37;;;;;;;;;;5030219;28;20428;-43
2022/11/13 03:32:54;;;;;;;275.87;117.47;;;;;;;;;;5027751;28;20422;-43
2022/11/13 03:35:21;;;;;;;299.07;127.60;;;;;;;;;;5026176;28;20457;-43
2022/11/13 03:37:47;;;;;;;254.30;113.90;;;;;;;;;;5027753;28;20989;-43
2022/11/13 03:40:13;;;;;;;346.37;133.30;;;;;;;;;;5028005;28;21140;-43
2022/11/13 03:42:40;;;;;;;264.50;114.03;;;;;;;;;;5027591;28;20944;-43
2022/11/13 03:45:06;;;;;;;185.10;96.07;;;;;;;;;;5025828;28;22520;-44
2022/11/13 03:47:32;;;;;;;223.57;104.57;;;;;;;;;;5030223;28;21281;-44
2022/11/13 03:49:58;;;;;;;222.03;101.97;;;;;;;;;;5026950;28;20478;-44
2022/11/13 03:52:24;;;;;;;407.33;123.87;;;;;;;;;;5030091;28;20437;-44
2022/11/13 03:54:50;;;;;;;360.40;123.37;;;;;;;;;;5023492;28;20462;-44
2022/11/13 03:57:16;;;;;;;238.47;113.50;;;;;;;;;;5025694;28;20510;-43
2022/11/13 03:59:42;;;;;;;352.67;129.53;;;;;;;;;;5028672;28;21257;-44
2022/11/13 04:02:08;;;;;;;235.53;113.10;;;;;;;;;;5026344;28;20421;-44
2022/11/13 04:04:34;;;;;;;201.37;102.93;;;;;;;;;;5033297;28;20409;-44
2022/11/13 04:07:00;;;;;;;213.37;108.43;;;;;;;;;;5029038;28;20540;-45
2022/11/13 04:09:26;;;;;;;193.33;100.07;;;;;;;;;;5025959;28;20179;-44
2022/11/13 04:11:52;;;;;;;332.30;125.23;;;;;;;;;;5028473;28;20905;-44
2022/11/13 04:14:18;;;;;;;395.23;133.53;;;;;;;;;;5026820;28;21158;-45
2022/11/13 04:16:45;;;;;;;317.60;126.33;;;;;;;;;;5027340;28;20464;-44
2022/11/13 04:19:11;;;;;;;274.10;115.57;;;;;;;;;;5022618;28;20436;-44
2022/11/13 04:21:37;;;;;;;258.80;118.17;;;;;;;;;;5028723;28;21008;-44
2022/11/13 04:24:03;;;;;;;228.63;110.70;;;;;;;;;;5032481;28;20752;-44
2022/11/13 04:26:29;;;;;;;224.50;104.83;;;;;;;;;;5028669;28;20441;-44
2022/11/13 04:28:55;;;;;;;198.73;99.00;;;;;;;;;;5025909;28;20475;-44
2022/11/13 04:31:21;;;;;;;188.97;89.70;;;;;;;;;;5023343;28;20437;-44
2022/11/13 04:33:47;;;;;;;233.20;102.67;;;;;;;;;;5026723;28;20207;-44
2022/11/13 04:36:13;;;;;;;275.73;113.90;;;;;;;;;;5025301;28;20461;-44
2022/11/13 04:38:39;;;;;;;179.53;89.83;;;;;;;;;;5027433;28;21301;-44
2022/11/13 04:43:50;;;;;;;185.67;93.73;;;;;;;;;;5019233;28;20854;-44
2022/11/13 04:46:16;;;;;;;191.87;96.97;;;;;;;;;;5015296;28;20490;-44
2022/11/13 04:48:42;;;;;;;198.17;97.97;;;;;;;;;;5020026;28;20441;-44
2022/11/13 04:51:08;;;;;;;151.83;85.00;;;;;;;;;;5023800;28;20430;-44
2022/11/13 04:53:34;;;;;;;173.70;91.43;;;;;;;;;;5023670;28;20729;-44
2022/11/13 04:56:01;;;;;;;162.17;87.27;;;;;;;;;;5023066;28;20464;-44
2022/11/13 04:58:27;;;;;;;185.70;91.93;;;;;;;;;;5022757;28;21302;-44
2022/11/13 05:00:53;;;;;;;157.23;83.67;;;;;;;;;;5021540;28;20426;-44
2022/11/13 05:03:19;;;;;;;171.30;90.00;;;;;;;;;;5026039;28;20762;-44
2022/11/13 05:05:45;;;;;;;172.00;87.00;;;;;;;;;;5024227;28;20762;-44
2022/11/13 05:08:11;;;;;;;167.00;88.57;;;;;;;;;;5026864;28;20990;-44
2022/11/13 05:10:37;;;;;;;170.07;91.73;;;;;;;;;;5028358;28;20504;-44
2022/11/13 05:13:03;;;;;;;204.40;102.07;;;;;;;;;;5026320;28;20826;-44
2022/11/13 05:15:30;;;;;;;155.47;83.50;;;;;;;;;;5024520;28;20497;-44
2022/11/13 05:17:56;;;;;;;211.17;95.27;;;;;;;;;;5023448;28;20941;-44
2022/11/13 05:20:22;;;;;;;188.70;92.20;;;;;;;;;;5027329;28;20786;-44
2022/11/13 05:22:48;;;;;;;209.93;101.47;;;;;;;;;;5025453;28;20532;-44
2022/11/13 05:25:14;;;;;;;201.13;102.10;;;;;;;;;;5030241;28;21154;-44
2022/11/13 05:27:40;;;;;;;201.33;96.97;;;;;;;;;;5021871;28;20538;-44
2022/11/13 05:30:06;;;;;;;176.83;90.13;;;;;;;;;;5024858;28;20521;-43
2022/11/13 05:32:33;;;;;;;156.23;83.13;;;;;;;;;;5030407;28;20559;-44
2022/11/13 05:34:59;;;;;;;156.00;86.27;;;;;;;;;;5024450;28;20909;-44
2022/11/13 05:37:25;;;;;;;149.23;80.27;;;;;;;;;;5027760;28;20436;-44
2022/11/13 05:39:51;;;;;;;119.10;71.33;;;;;;;;;;5027518;28;20686;-44
2022/11/13 05:42:17;;;;;;;119.83;73.67;;;;;;;;;;5021275;28;20456;-44
2022/11/13 05:44:43;;;;;;;127.63;73.70;;;;;;;;;;5024605;28;20430;-44
2022/11/13 05:47:09;;;;;;;132.30;78.90;;;;;;;;;;5009086;28;20854;-44
2022/11/13 05:49:35;;;;;;;116.00;73.20;;;;;;;;;;5022825;28;20916;-42
2022/11/13 05:52:01;;;;;;;124.53;72.37;;;;;;;;;;5029925;28;20433;-42
2022/11/13 05:54:27;;;;;;;125.33;74.97;;;;;;;;;;5029870;28;20490;-42
2022/11/13 05:56:53;;;;;;;127.10;74.63;;;;;;;;;;5025346;28;20803;-42
2022/11/13 05:59:19;;;;;;;117.57;71.73;;;;;;;;;;5022786;28;20430;-42
2022/11/13 06:01:45;;;;;;;117.43;70.20;;;;;;;;;;5022151;28;20721;-43
2022/11/13 06:04:11;;;;;;;125.90;74.40;;;;;;;;;;5024179;28;20441;-43
2022/11/13 06:06:37;;;;;;;120.73;74.20;;;;;;;;;;5028815;28;20991;-42
2022/11/13 06:09:05;;;;;;;133.43;78.80;;;;;;;;;;5022008;28;20775;-43
2022/11/13 06:11:31;;;;;;;130.83;77.90;;;;;;;;;;5025439;28;20746;-43
2022/11/13 06:13:58;;;;;;;108.17;66.57;;;;;;;;;;5024316;28;20536;-43
2022/11/13 06:16:26;;;;;;;106.60;65.13;;;;;;;;;;5021651;28;20457;-43
2022/11/13 06:18:59;;;;;;;128.27;76.50;;;;;;;;;;5019855;28;20426;-43
2022/11/13 06:21:27;;;;;;;110.13;71.27;;;;;;;;;;5027549;28;20564;-45
2022/11/13 06:23:53;;;;;;;108.23;68.07;;;;;;;;;;5028824;28;20429;-43
2022/11/13 06:26:23;;;;;;;122.83;75.63;;;;;;;;;;5026508;28;20506;-43
2022/11/13 06:28:50;;;;;;;121.43;73.47;;;;;;;;;;5027873;28;20743;-43
2022/11/13 06:31:23;;;;;;;129.70;78.83;;;;;;;;;;5023545;28;20429;-43
2022/11/13 06:33:49;;;;;;;114.63;71.90;;;;;;;;;;5026429;28;20511;-43
2022/11/13 06:36:19;;;;;;;115.27;75.10;;;;;;;;;;5024034;28;20460;-43
2022/11/13 06:38:46;;;;;;;123.70;78.83;;;;;;;;;;5027995;28;21039;-43
2022/11/13 06:41:14;;;;;;;136.43;86.80;;;;;;;;;;5017090;28;20533;-43
2022/11/13 06:43:40;;;;;;;128.27;81.37;;;;;;;;;;5023412;28;20541;-43
2022/11/13 06:46:07;;;;;;;132.43;82.93;;;;;;;;;;5025208;28;20993;-43
2022/11/13 06:48:34;;;;;;;129.90;79.97;;;;;;;;;;5023563;28;20533;-43
2022/11/13 06:51:01;;;;;;;132.97;81.17;;;;;;;;;;5022320;28;20430;-42
2022/11/13 06:53:27;;;;;;;110.13;69.77;;;;;;;;;;5023375;28;20974;-43
2022/11/13 06:55:53;;;;;;;119.93;75.77;;;;;;;;;;5023773;28;20519;-44
2022/11/13 06:58:19;;;;;;;114.53;74.30;;;;;;;;;;5025080;28;20834;-44
2022/11/13 07:00:45;;;;;;;110.83;70.63;;;;;;;;;;5020072;28;20426;-45
2022/11/13 07:03:18;;;;;;;111.80;71.83;;;;;;;;;;5017712;28;20425;-43
2022/11/13 07:05:45;;;;;;;122.37;76.83;;;;;;;;;;5022245;28;20570;-43
2022/11/13 07:08:11;;;;;;;108.60;67.30;;;;;;;;;;5021001;28;20512;-43
2022/11/13 07:10:37;;;;;;;106.97;66.97;;;;;;;;;;5019323;28;20605;-43
2022/11/13 07:13:04;;;;;;;102.90;66.27;;;;;;;;;;5015341;28;20818;-43
2022/11/13 07:15:33;;;;;;;98.30;59.73;;;;;;;;;;5022123;28;20850;-43
2022/11/13 07:18:00;;;;;;;100.70;61.10;;;;;;;;;;5024181;28;21206;-44
2022/11/13 07:20:26;;;;;;;111.70;67.83;;;;;;;;;;5020448;28;20431;-43
2022/11/13 07:22:55;;;;;;;104.20;64.70;;;;;;;;;;5013157;28;21031;-46
2022/11/13 07:25:21;;;;;;;111.57;67.77;;;;;;;;;;5020437;28;20462;-45
2022/11/13 07:27:47;;;;;;;110.43;67.83;;;;;;;;;;5023111;28;20430;-45
2022/11/13 07:30:13;;;;;;;117.33;72.27;;;;;;;;;;5026750;28;20665;-45
2022/11/13 07:32:39;;;;;;;116.83;72.90;;;;;;;;;;5021834;28;20433;-45
2022/11/13 07:35:05;;;;;;;114.60;70.00;;;;;;;;;;5021983;28;20489;-44
2022/11/13 07:37:31;;;;;;;112.03;68.73;;;;;;;;;;5022513;28;20418;-43
2022/11/13 07:39:58;;;;;;;106.93;66.03;;;;;;;;;;5004990;28;20837;-43
2022/11/13 07:42:24;;;;;;;116.60;69.93;;;;;;;;;;4993302;28;20560;-44
2022/11/13 07:44:50;;;;;;;120.73;68.60;;;;;;;;;;5010956;28;20543;-44
2022/11/13 07:47:16;;;;;;;112.23;66.67;;;;;;;;;;5011110;28;20262;-43
2022/11/13 07:49:42;;;;;;;120.47;73.77;;;;;;;;;;5011303;28;20703;-43
2022/11/13 07:52:08;;;;;;;114.63;68.80;;;;;;;;;;5020335;28;20448;-44
2022/11/13 07:54:34;;;;;;;109.30;65.37;;;;;;;;;;5020381;28;21123;-44
2022/11/13 07:57:00;;;;;;;118.20;68.73;;;;;;;;;;5011264;28;20491;-44
2022/11/13 07:59:26;;;;;;;118.53;69.47;;;;;;;;;;5023690;28;20479;-43
2022/11/13 08:01:52;;;;;;;112.50;65.47;;;;;;;;;;5029755;28;21511;-43
2022/11/13 08:04:18;;;;;;;95.37;60.03;;;;;;;;;;5027574;28;20440;-43
2022/11/13 08:06:44;;;;;;;106.90;63.80;;;;;;;;;;5025567;28;20675;-43
2022/11/13 08:09:10;;;;;;;93.53;59.57;;;;;;;;;;5028005;28;20460;-44
2022/11/13 08:11:37;;;;;;;106.17;66.00;;;;;;;;;;5027613;28;20918;-44
2022/11/13 08:14:03;;;;;;;89.07;57.57;;;;;;;;;;5021870;28;20313;-44
2022/11/13 08:16:30;;;;;;;96.53;59.73;;;;;;;;;;5026166;28;20453;-44
2022/11/13 08:18:56;;;;;;;102.63;61.20;;;;;;;;;;5013210;28;20418;-44
2022/11/13 08:21:22;;;;;;;85.47;55.20;;;;;;;;;;5026912;28;20345;-44
2022/11/13 08:23:49;;;;;;;92.40;57.67;;;;;;;;;;5031091;28;20614;-45
2022/11/13 08:26:15;;;;;;;80.27;53.00;;;;;;;;;;5036120;28;20357;-45
2022/11/13 08:28:41;;;;;;;94.60;58.40;;;;;;;;;;5032678;28;20509;-45
2022/11/13 08:31:10;;;;;;;77.73;51.83;;;;;;;;;;5029078;28;21042;-45
2022/11/13 08:33:36;;;;;;;88.53;55.10;;;;;;;;;;5031784;28;20176;-45
2022/11/13 08:36:02;;;;;;;83.50;53.13;;;;;;;;;;5033703;28;20192;-43
2022/11/13 08:38:28;;;;;;;76.33;48.43;;;;;;;;;;5031136;28;20431;-43
2022/11/13 08:40:58;;;;;;;77.93;51.37;;;;;;;;;;5030337;28;20874;-44
2022/11/13 08:43:24;;;;;;;88.90;53.50;;;;;;;;;;5032285;28;20700;-43
2022/11/13 08:45:50;;;;;;;67.13;44.57;;;;;;;;;;5019072;28;20179;-44
2022/11/13 08:48:16;;;;;;;69.70;45.10;;;;;;;;;;5028707;28;20430;-44
2022/11/13 08:50:42;;;;;;;69.93;45.83;;;;;;;;;;5034140;28;20182;-44
2022/11/13 08:53:08;;;;;;;67.13;44.60;;;;;;;;;;5033872;28;20179;-44
2022/11/13 08:55:34;;;;;;;70.27;44.07;;;;;;;;;;5031649;28;20200;-45
2022/11/13 08:58:01;;;;;;;68.13;42.33;;;;;;;;;;5029273;28;20172;-45
2022/11/13 09:00:32;;;;;;;55.73;37.37;;;;;;;;;;5029103;28;20775;-45
2022/11/13 09:02:59;;;;;;;58.03;36.43;;;;;;;;;;5031910;28;20172;-43
2022/11/13 09:05:26;;;;;;;45.60;31.60;;;;;;;;;;5028347;28;20179;-44
2022/11/13 09:07:55;;;;;;;51.17;34.40;;;;;;;;;;5032214;28;20179;-45
2022/11/13 09:10:21;;;;;;;45.57;29.90;;;;;;;;;;5031762;28;20680;-44
2022/11/13 09:12:47;;;;;;;39.10;26.83;;;;;;;;;;5033292;28;20825;-44
2022/11/13 09:15:13;;;;;;;39.33;27.50;;;;;;;;;;5031046;28;20318;-45
2022/11/13 09:17:39;;;;;;;34.57;24.13;;;;;;;;;;5030419;28;20831;-44
2022/11/13 09:20:06;;;;;;;33.17;22.40;;;;;;;;;;5029592;28;20172;-44
2022/11/13 09:22:32;;;;;;;31.60;21.97;;;;;;;;;;5024829;28;20170;-44
2022/11/13 09:24:58;;;;;;;35.17;23.90;;;;;;;;;;5029876;28;20667;-44
2022/11/13 09:27:24;;;;;;;36.87;25.00;;;;;;;;;;5028967;28;21665;-44
2022/11/13 09:29:50;;;;;;;35.67;24.20;;;;;;;;;;5026618;28;20680;-44
2022/11/13 09:32:16;;;;;;;38.20;24.80;;;;;;;;;;5030270;28;20610;-44
2022/11/13 09:34:42;;;;;;;35.83;24.60;;;;;;;;;;5029941;28;20245;-43
2022/11/13 09:37:08;;;;;;;38.63;23.90;;;;;;;;;;5028945;28;20419;-46
2022/11/13 09:39:34;;;;;;;28.47;21.27;;;;;;;;;;5027295;28;20242;-44
2022/11/13 09:42:09;;;;;;;34.03;23.80;;;;;;;;;;5029406;28;20605;-45
2022/11/13 09:44:38;;;;;;;33.87;24.77;;;;;;;;;;5031568;28;20290;-44
2022/11/13 09:47:13;;;;;;;35.40;23.90;;;;;;;;;;5028704;28;20725;-44
2022/11/13 09:49:43;;;;;;;34.20;24.13;;;;;;;;;;5026716;28;20179;-44
2022/11/13 09:52:13;;;;;;;37.63;25.80;;;;;;;;;;5025669;28;20176;-44
2022/11/13 09:54:40;;;;;;;38.87;27.90;;;;;;;;;;5028635;28;20630;-44
2022/11/13 09:57:09;;;;;;;38.87;28.07;;;;;;;;;;5026102;28;20208;-44
2022/11/13 09:59:40;;;;;;;34.83;24.53;;;;;;;;;;5023937;28;20168;-44
2022/11/13 10:02:09;;;;;;;39.47;25.57;;;;;;;;;;5029958;28;20171;-44
2022/11/13 10:04:54;;;;;;;34.00;24.60;;;;;;;;;;5028330;28;20973;-44
2022/11/13 10:07:29;;;;;;;36.47;24.90;;;;;;;;;;5028685;28;21012;-45
2022/11/13 10:09:58;;;;;;;36.03;25.03;;;;;;;;;;5030355;28;20523;-45
2022/11/13 10:12:26;;;;;;;35.93;24.67;;;;;;;;;;5025843;28;20186;-44
2022/11/13 10:14:55;;;;;;;34.50;23.53;;;;;;;;;;5025790;28;20346;-45
2022/11/13 10:17:27;;;;;;;31.93;23.70;;;;;;;;;;5028340;28;20746;-44
2022/11/13 10:19:53;;;;;;;30.30;21.60;;;;;;;;;;5031729;28;21227;-45
2022/11/13 10:22:19;;;;;;;30.13;20.33;;;;;;;;;;5025864;28;20889;-45
2022/11/13 10:24:46;;;;;;;31.30;20.20;;;;;;;;;;5013047;28;20607;-45
2022/11/13 10:27:13;;;;;;;29.07;21.27;;;;;;;;;;5028087;28;20176;-44
2022/11/13 10:29:39;;;;;;;28.60;20.30;;;;;;;;;;5030494;28;20549;-45
2022/11/13 10:32:20;;;;;;;26.57;18.27;;;;;;;;;;5030342;28;20571;-44
2022/11/13 10:34:49;;;;;;;28.73;18.73;;;;;;;;;;5028300;28;20290;-44
2022/11/13 10:37:21;;;;;;;24.77;18.23;;;;;;;;;;5030313;28;20172;-44
2022/11/13 10:39:47;;;;;;;25.00;17.30;;;;;;;;;;5032396;28;20168;-45
2022/11/13 10:42:23;;;;;;;22.17;17.03;;;;;;;;;;5028066;28;20457;-45
2022/11/13 10:44:56;;;;;;;23.23;17.27;;;;;;;;;;5027217;28;20179;-44
2022/11/13 10:47:24;;;;;;;25.60;17.87;;;;;;;;;;5030303;28;20167;-45
2022/11/13 10:49:50;;;;;;;23.70;17.60;;;;;;;;;;5030085;28;20207;-45
2022/11/13 10:52:18;;;;;;;29.27;18.27;;;;;;;;;;5027002;28;20280;-45
2022/11/13 10:54:44;;;;;;;26.97;18.53;;;;;;;;;;5028462;28;20179;-44
2022/11/13 10:57:22;;;;;;;23.73;18.40;;;;;;;;;;5030312;28;20751;-45
2022/11/13 10:59:49;;;;;;;28.63;20.70;;;;;;;;;;5029325;28;20230;-44
2022/11/13 11:02:16;;;;;;;27.20;18.87;;;;;;;;;;5027416;28;20621;-44
2022/11/13 11:04:42;;;;;;;26.33;18.73;;;;;;;;;;5031496;28;20652;-45
2022/11/13 11:07:26;;;;;;;21.60;17.97;;;;;;;;;;5032448;28;20176;-45
2022/11/13 11:09:53;;;;;;;25.17;18.07;;;;;;;;;;5027813;28;20172;-45
2022/11/13 11:12:21;;;;;;;29.20;18.40;;;;;;;;;;5025851;28;20553;-44
2022/11/13 11:14:53;;;;;;;24.53;17.70;;;;;;;;;;5028849;28;20742;-45
2022/11/13 11:17:21;;;;;;;24.10;18.03;;;;;;;;;;5031134;28;20670;-45
2022/11/13 11:19:51;;;;;;;23.60;18.37;;;;;;;;;;5017500;28;20659;-44
2022/11/13 11:22:19;;;;;;;26.17;19.27;;;;;;;;;;5027657;28;20478;-44
2022/11/13 11:24:51;;;;;;;25.93;19.00;;;;;;;;;;5029433;28;20601;-44
2022/11/13 11:27:35;;;;;;;22.77;16.27;;;;;;;;;;5029760;28;20187;-44
2022/11/13 11:30:04;;;;;;;21.57;16.47;;;;;;;;;;5026458;28;20672;-44
2022/11/13 11:32:33;;;;;;;21.97;15.70;;;;;;;;;;5026985;28;20887;-44
2022/11/13 11:35:04;;;;;;;20.93;15.93;;;;;;;;;;5030123;28;20176;-44
2022/11/13 11:37:32;;;;;;;19.17;14.43;;;;;;;;;;5029419;28;20664;-44
2022/11/13 11:40:07;;;;;;;23.53;16.47;;;;;;;;;;5026360;28;20172;-44
2022/11/13 11:42:39;;;;;;;20.43;15.40;;;;;;;;;;5026595;28;20168;-44
2022/11/13 11:45:05;;;;;;;19.47;15.70;;;;;;;;;;5031688;28;20845;-44
2022/11/13 11:47:32;;;;;;;20.97;15.10;;;;;;;;;;5027830;28;21154;-44
2022/11/13 11:49:59;;;;;;;21.00;15.03;;;;;;;;;;5025581;28;20478;-44
2022/11/13 11:52:27;;;;;;;21.83;16.20;;;;;;;;;;5029137;28;20199;-44
2022/11/13 11:55:04;;;;;;;18.53;15.40;;;;;;;;;;5030076;28;20208;-44
2022/11/13 11:57:30;;;;;;;23.53;17.03;;;;;;;;;;5028421;28;20175;-44
2022/11/13 12:00:09;;;;;;;24.83;17.27;;;;;;;;;;5033055;28;20410;-44
2022/11/13 12:02:35;;;;;;;28.40;17.93;;;;;;;;;;5033749;28;20179;-44
2022/11/13 12:05:13;;;;;;;25.20;19.00;;;;;;;;;;5032480;28;20175;-44
2022/11/13 12:07:50;;;;;;;25.10;18.47;;;;;;;;;;5031998;28;20281;-44
2022/11/13 12:10:16;;;;;;;22.20;17.37;;;;;;;;;;5016378;28;20168;-44
2022/11/13 12:13:01;;;;;;;25.30;18.40;;;;;;;;;;5033568;28;20171;-45
2022/11/13 12:15:35;;;;;;;23.83;18.00;;;;;;;;;;5029940;28;20270;-45
2022/11/13 12:18:01;;;;;;;26.90;18.70;;;;;;;;;;5034645;28;20172;-45
2022/11/13 12:20:40;;;;;;;21.87;18.20;;;;;;;;;;5030949;28;20410;-44
2022/11/13 12:23:24;;;;;;;21.57;17.43;;;;;;;;;;5033670;28;20175;-45
2022/11/13 12:25:55;;;;;;;21.90;16.50;;;;;;;;;;5030519;28;20302;-45
2022/11/13 12:28:27;;;;;;;21.30;17.17;;;;;;;;;;5030086;28;20608;-45
2022/11/13 12:30:56;;;;;;;21.53;16.63;;;;;;;;;;5034339;28;20184;-45
2022/11/13 12:33:45;;;;;;;22.53;17.23;;;;;;;;;;5031563;28;20293;-45
2022/11/13 12:36:12;;;;;;;22.80;16.80;;;;;;;;;;5030524;28;20316;-44
2022/11/13 12:38:44;;;;;;;27.90;17.17;;;;;;;;;;5034344;28;20198;-45
2022/11/13 12:41:16;;;;;;;23.13;17.83;;;;;;;;;;5030825;28;20538;-44
2022/11/13 12:43:51;;;;;;;26.23;18.77;;;;;;;;;;5011932;28;20172;-44
2022/11/13 12:46:17;;;;;;;19.77;16.17;;;;;;;;;;5036465;28;20175;-45
2022/11/13 12:48:47;;;;;;;20.80;16.77;;;;;;;;;;5032567;28;20225;-45
2022/11/13 12:51:15;;;;;;;21.53;16.73;;;;;;;;;;5029417;28;20171;-45
2022/11/13 12:53:43;;;;;;;24.97;17.20;;;;;;;;;;5031865;28;20168;-45
2022/11/13 12:56:26;;;;;;;25.33;16.80;;;;;;;;;;5033170;28;20623;-45
2022/11/13 12:59:03;;;;;;;24.30;17.07;;;;;;;;;;5032038;28;20172;-45
2022/11/13 13:01:34;;;;;;;23.67;17.57;;;;;;;;;;5030244;28;20167;-45
2022/11/13 13:04:00;;;;;;;24.57;17.77;;;;;;;;;;5032033;28;20717;-45
2022/11/13 13:06:44;;;;;;;25.47;19.43;;;;;;;;;;5034280;28;20229;-45
2022/11/13 13:09:10;;;;;;;27.30;18.53;;;;;;;;;;5027916;28;20167;-45
2022/11/13 13:11:36;;;;;;;26.83;19.40;;;;;;;;;;5029729;28;20172;-45
2022/11/13 13:14:08;;;;;;;25.97;19.17;;;;;;;;;;5035292;28;20625;-45
2022/11/13 13:16:35;;;;;;;23.00;17.73;;;;;;;;;;5031361;28;20195;-45
2022/11/13 13:19:06;;;;;;;23.33;18.03;;;;;;;;;;5030956;28;20203;-45
2022/11/13 13:21:40;;;;;;;26.20;18.40;;;;;;;;;;5029626;28;20604;-45
2022/11/13 13:24:08;;;;;;;25.43;19.17;;;;;;;;;;5031571;28;20180;-45
2022/11/13 13:26:44;;;;;;;26.83;18.67;;;;;;;;;;5030626;28;20304;-45
2022/11/13 13:29:17;;;;;;;23.50;17.67;;;;;;;;;;5027997;28;20179;-45
2022/11/13 13:31:53;;;;;;;26.63;19.57;;;;;;;;;;5029625;28;20739;-45
2022/11/13 13:34:24;;;;;;;22.27;17.73;;;;;;;;;;5033985;28;20171;-45
2022/11/13 13:37:00;;;;;;;22.10;17.23;;;;;;;;;;5030088;28;20809;-45
2022/11/13 13:39:44;;;;;;;21.63;16.73;;;;;;;;;;5029143;28;20176;-45
2022/11/13 13:42:16;;;;;;;25.67;18.63;;;;;;;;;;5028699;28;20312;-45
2022/11/13 13:44:49;;;;;;;26.40;17.53;;;;;;;;;;5031768;28;20171;-45
2022/11/13 13:47:26;;;;;;;24.63;18.57;;;;;;;;;;5031674;28;20585;-45
2022/11/13 13:49:52;;;;;;;24.93;18.73;;;;;;;;;;5030063;28;20273;-45
2022/11/13 13:52:20;;;;;;;24.33;18.00;;;;;;;;;;5026509;28;20266;-45
2022/11/13 13:54:47;;;;;;;27.87;19.43;;;;;;;;;;5028155;28;20488;-45
2022/11/13 13:57:14;;;;;;;25.33;17.87;;;;;;;;;;5025894;28;20207;-46
2022/11/13 13:59:43;;;;;;;27.07;19.33;;;;;;;;;;5029669;28;20321;-46
2022/11/13 14:02:27;;;;;;;25.27;19.77;;;;;;;;;;5031620;28;20269;-45
2022/11/13 14:04:54;;;;;;;27.67;19.53;;;;;;;;;;5030614;28;21536;-45
2022/11/13 14:07:23;;;;;;;25.27;19.23;;;;;;;;;;5029736;28;20870;-45
2022/11/13 14:09:49;;;;;;;22.37;18.57;;;;;;;;;;5033078;28;20677;-45
2022/11/13 14:12:22;;;;;;;25.17;19.13;;;;;;;;;;5032684;28;20530;-45
2022/11/13 14:14:48;;;;;;;25.63;18.70;;;;;;;;;;5028978;28;20307;-45